createdAt,value
2023-02-11T00:00:59.913Z,3.08
2023-02-11T00:03:46.303Z,2.75
2023-02-11T00:06:33.948Z,3.38
2023-02-11T00:09:20.420Z,3.65
2023-02-11T00:12:06.517Z,3.47
2023-02-11T00:14:53.296Z,3.20
2023-02-11T00:17:39.604Z,3.53
2023-02-11T00:20:25.985Z,3.17
2023-02-11T00:23:12.694Z,3.30
2023-02-11T00:25:58.813Z,3.53
2023-02-11T00:28:45.576Z,3.60
2023-02-11T00:31:31.961Z,3.00
2023-02-11T00:34:18.641Z,4.00
2023-02-11T00:37:05.522Z,3.08
2023-02-11T00:39:52.397Z,3.22
2023-02-11T00:42:38.659Z,3.10
2023-02-11T00:45:25.095Z,3.42
2023-02-11T00:48:11.259Z,2.88
2023-02-11T00:50:57.581Z,2.92
2023-02-11T00:53:44.368Z,2.70
2023-02-11T00:56:30.495Z,3.60
2023-02-11T00:59:16.854Z,2.70
2023-02-11T01:02:03.099Z,3.00
2023-02-11T01:04:49.390Z,2.83
2023-02-11T01:07:35.769Z,3.35
2023-02-11T01:10:22.750Z,2.72
2023-02-11T01:13:08.862Z,2.60
2023-02-11T01:15:55.527Z,2.97
2023-02-11T01:18:44.531Z,2.50
2023-02-11T01:21:31.030Z,2.53
2023-02-11T01:24:17.234Z,2.35
2023-02-11T01:27:04.101Z,2.42
2023-02-11T01:29:50.477Z,2.38
2023-02-11T01:32:36.657Z,2.35
2023-02-11T01:35:22.890Z,2.40
2023-02-11T01:38:14.814Z,2.72
2023-02-11T01:41:02.653Z,2.42
2023-02-11T01:43:52.810Z,2.30
2023-02-11T01:46:39.656Z,2.35
2023-02-11T01:49:31.495Z,2.55
2023-02-11T01:52:35.810Z,2.60
2023-02-11T01:55:40.835Z,2.85
2023-02-11T01:58:29.895Z,2.25
2023-02-11T02:01:18.287Z,2.58
2023-02-11T02:04:09.623Z,2.17
2023-02-11T02:07:03.291Z,2.50
2023-02-11T02:09:55.461Z,2.20
2023-02-11T02:12:41.917Z,1.90
2023-02-11T02:15:35.900Z,1.63
2023-02-11T02:18:28.705Z,2.00
2023-02-11T02:21:33.385Z,1.90
2023-02-11T02:24:19.981Z,1.90
2023-02-11T02:27:25.437Z,1.60
2023-02-11T02:30:14.922Z,2.10
2023-02-11T02:33:21.712Z,1.92
2023-02-11T02:36:14.276Z,1.67
2023-02-11T02:39:04.252Z,1.45
2023-02-11T02:41:52.196Z,1.63
2023-02-11T02:44:38.266Z,1.92
2023-02-11T02:47:24.455Z,1.70
2023-02-11T02:50:10.966Z,1.70
2023-02-11T02:53:00.434Z,1.85
2023-02-11T02:55:56.460Z,1.70
2023-02-11T02:59:09.833Z,1.65
2023-02-11T03:01:56.277Z,1.60
2023-02-11T03:04:42.511Z,1.73
2023-02-11T03:07:33.497Z,1.75
2023-02-11T03:10:26.211Z,1.70
2023-02-11T03:13:12.412Z,1.80
2023-02-11T03:15:59.703Z,2.33
2023-02-11T03:18:49.347Z,1.90
2023-02-11T03:21:38.292Z,1.90
2023-02-11T03:24:32.752Z,2.08
2023-02-11T03:27:21.562Z,1.95
2023-02-11T03:30:17.371Z,2.00
2023-02-11T03:33:09.708Z,2.03
2023-02-11T03:36:08.699Z,1.88
2023-02-11T03:38:57.704Z,1.70
2023-02-11T03:41:45.079Z,1.67
2023-02-11T03:44:33.929Z,1.80
2023-02-11T03:47:22.029Z,1.83
2023-02-11T03:50:11.386Z,1.90
2023-02-11T03:52:58.228Z,1.77
2023-02-11T03:55:45.362Z,2.05
2023-02-11T03:58:31.438Z,2.10
2023-02-11T04:01:17.874Z,1.98
2023-02-11T04:04:04.348Z,2.33
2023-02-11T04:06:50.519Z,2.30
2023-02-11T04:09:37.048Z,2.15
2023-02-11T04:12:23.743Z,2.30
2023-02-11T04:15:10.185Z,2.42
2023-02-11T04:17:56.545Z,2.70
2023-02-11T04:20:43.064Z,2.40
2023-02-11T04:23:29.356Z,2.83
2023-02-11T04:26:16.573Z,2.90
2023-02-11T04:29:02.740Z,2.97
2023-02-11T04:31:48.984Z,2.70
2023-02-11T04:34:35.151Z,3.13
2023-02-11T04:37:21.659Z,2.50
2023-02-11T04:40:08.484Z,2.95
2023-02-11T04:42:54.920Z,2.90
2023-02-11T04:45:41.059Z,3.10
2023-02-11T04:48:27.331Z,3.10
2023-02-11T04:51:13.824Z,3.40
2023-02-11T04:53:59.980Z,3.50
2023-02-11T04:56:46.417Z,3.53
2023-02-11T04:59:32.608Z,3.78
2023-02-11T05:02:18.903Z,3.45
2023-02-11T05:05:06.020Z,3.70
2023-02-11T05:07:52.324Z,3.70
2023-02-11T05:10:39.120Z,3.65
2023-02-11T05:13:25.815Z,4.00
2023-02-11T05:16:12.108Z,3.65
2023-02-11T05:18:58.667Z,3.88
2023-02-11T05:22:00.254Z,4.35
2023-02-11T05:24:48.278Z,4.50
2023-02-11T05:27:34.951Z,4.30
2023-02-11T05:30:21.246Z,4.30
2023-02-11T05:33:07.492Z,4.28
2023-02-11T05:35:54.610Z,4.85
2023-02-11T05:38:42.721Z,5.25
2023-02-11T05:41:29.005Z,5.43
2023-02-11T05:44:15.175Z,5.18
2023-02-11T05:47:02.027Z,5.55
2023-02-11T05:49:48.045Z,5.03
2023-02-11T05:52:34.149Z,5.50
2023-02-11T05:55:20.393Z,5.50
2023-02-11T05:58:06.842Z,5.85
2023-02-11T06:00:53.122Z,5.47
2023-02-11T06:03:39.449Z,5.88
2023-02-11T06:06:25.883Z,5.10
2023-02-11T06:09:12.160Z,6.30
2023-02-11T06:11:58.477Z,5.57
2023-02-11T06:14:45.094Z,5.35
2023-02-11T06:17:36.710Z,5.82
2023-02-11T06:20:23.524Z,5.35
2023-02-11T06:23:10.281Z,6.18
2023-02-11T06:25:56.546Z,5.50
2023-02-11T06:28:42.971Z,5.40
2023-02-11T06:31:29.996Z,5.28
2023-02-11T06:34:16.918Z,5.10
2023-02-11T06:37:03.949Z,5.72
2023-02-11T06:39:50.073Z,5.05
2023-02-11T06:42:39.031Z,5.45
2023-02-11T06:45:25.550Z,5.13
2023-02-11T06:48:12.448Z,5.38
2023-02-11T06:51:02.340Z,5.32
2023-02-11T06:53:48.838Z,4.80
2023-02-11T06:56:35.603Z,5.00
2023-02-11T06:59:21.878Z,4.80
2023-02-11T07:02:09.508Z,4.63
2023-02-11T07:04:56.495Z,4.40
2023-02-11T07:07:43.015Z,4.05
2023-02-11T07:10:29.183Z,3.90
2023-02-11T07:13:16.169Z,3.70
2023-02-11T07:16:04.971Z,3.60
2023-02-11T07:18:51.360Z,3.80
2023-02-11T07:21:37.635Z,4.43
2023-02-11T07:24:25.063Z,3.05
2023-02-11T07:27:11.359Z,2.88
2023-02-11T07:29:57.396Z,2.72
2023-02-11T07:32:43.608Z,3.00
2023-02-11T07:35:29.576Z,2.90
2023-02-11T07:38:15.923Z,2.85
2023-02-11T07:41:03.166Z,2.92
2023-02-11T07:43:50.023Z,2.47
2023-02-11T07:46:36.691Z,2.50
2023-02-11T07:49:23.400Z,2.78
2023-02-11T07:52:09.715Z,2.63
2023-02-11T07:54:56.549Z,2.63
2023-02-11T07:57:43.119Z,2.78
2023-02-11T08:00:29.267Z,2.85
2023-02-11T08:03:15.815Z,3.60
2023-02-11T08:06:06.206Z,2.70
2023-02-11T08:08:52.985Z,3.10
2023-02-11T08:11:39.103Z,2.72
2023-02-11T08:14:27.373Z,2.97
2023-02-11T08:17:13.854Z,2.70
2023-02-11T08:20:14.952Z,2.60
2023-02-11T08:23:02.340Z,2.40
2023-02-11T08:25:48.767Z,2.22
2023-02-11T08:28:42.309Z,2.05
2023-02-11T08:34:19.264Z,2.00
2023-02-11T08:37:05.393Z,1.90
2023-02-11T08:39:51.559Z,1.65
2023-02-11T08:42:38.316Z,2.00
2023-02-11T08:45:24.798Z,1.80
2023-02-11T08:48:10.889Z,1.70
2023-02-11T08:50:57.762Z,1.55
2023-02-11T08:53:43.980Z,1.60
2023-02-11T08:59:47.878Z,1.40
2023-02-11T09:02:34.601Z,1.42
2023-02-11T09:05:20.560Z,1.40
2023-02-11T09:08:06.927Z,1.30
2023-02-11T09:10:53.449Z,1.50
2023-02-11T09:13:41.266Z,1.40
2023-02-11T09:16:28.940Z,1.52
2023-02-11T09:19:15.233Z,1.30
2023-02-11T09:22:02.182Z,1.40
2023-02-11T09:24:57.117Z,1.17
2023-02-11T09:27:43.405Z,1.27
2023-02-11T09:30:29.860Z,1.10
2023-02-11T09:33:17.033Z,1.10
2023-02-11T09:36:07.421Z,0.95
2023-02-11T09:38:54.958Z,1.05
2023-02-11T09:41:58.154Z,0.98
2023-02-11T09:44:45.869Z,1.00
2023-02-11T09:47:37.330Z,1.00
2023-02-11T09:50:29.989Z,0.93
2023-02-11T09:53:29.885Z,0.90
2023-02-11T09:56:16.339Z,0.70
2023-02-11T09:59:02.523Z,0.60
2023-02-11T10:01:54.650Z,0.68
2023-02-11T10:04:56.345Z,0.80
2023-02-11T10:07:48.587Z,0.80
2023-02-11T10:10:42.698Z,0.77
2023-02-11T10:13:46.372Z,1.08
2023-02-11T10:19:35.998Z,1.10
2023-02-11T10:22:41.057Z,1.10
2023-02-11T10:26:00.134Z,1.10
2023-02-11T10:28:51.952Z,1.00
2023-02-11T10:31:43.633Z,1.15
2023-02-11T10:34:30.079Z,1.00
2023-02-11T10:37:16.369Z,0.90
2023-02-11T10:40:02.736Z,0.70
2023-02-11T10:42:53.575Z,0.90
2023-02-11T10:45:51.934Z,0.93
2023-02-11T10:48:38.554Z,0.88
2023-02-11T10:51:34.768Z,1.20
2023-02-11T10:54:21.522Z,0.73
2023-02-11T10:57:08.261Z,0.85
2023-02-11T10:59:58.484Z,0.80
2023-02-11T11:02:46.866Z,0.60
2023-02-11T11:05:35.077Z,0.57
2023-02-11T11:08:21.710Z,0.77
2023-02-11T11:11:09.319Z,0.60
2023-02-11T11:14:03.965Z,0.77
2023-02-11T11:16:54.706Z,0.55
2023-02-11T11:19:41.105Z,0.80
2023-02-11T11:22:27.601Z,0.57
2023-02-11T11:36:04.513Z,0.63
2023-02-11T11:38:57.541Z,0.57
2023-02-11T11:41:52.285Z,0.50
2023-02-11T11:44:40.581Z,0.57
2023-02-11T11:47:47.927Z,0.80
2023-02-11T11:50:49.087Z,0.52
2023-02-11T11:53:38.548Z,0.50
2023-02-11T11:56:32.991Z,0.60
2023-02-11T11:59:20.668Z,0.77
2023-02-11T12:02:08.594Z,0.40
2023-02-11T12:04:58.190Z,0.30
2023-02-11T12:07:48.345Z,0.35
2023-02-11T12:10:54.588Z,0.50
2023-02-11T12:13:41.602Z,0.50
2023-02-11T12:16:51.307Z,0.70
2023-02-11T12:19:37.845Z,0.95
2023-02-11T12:22:39.626Z,1.00
2023-02-11T12:25:28.028Z,1.25
2023-02-11T12:28:17.353Z,1.48
2023-02-11T12:31:22.877Z,1.40
2023-02-11T12:34:33.517Z,0.93
2023-02-11T12:37:23.102Z,0.80
2023-02-11T12:40:32.518Z,0.80
2023-02-11T12:43:24.571Z,0.70
2023-02-11T12:46:14.066Z,0.77
2023-02-11T12:49:20.283Z,0.80
2023-02-11T12:52:30.478Z,0.98
2023-02-11T12:55:21.474Z,0.82
2023-02-11T12:58:13.876Z,0.70
2023-02-11T13:01:06.387Z,0.75
2023-02-11T13:03:55.627Z,1.30
2023-02-11T13:06:46.398Z,1.10
2023-02-11T13:09:39.915Z,1.00
2023-02-11T13:12:45.785Z,0.90
2023-02-11T13:15:32.657Z,1.00
2023-02-11T13:18:24.923Z,0.98
2023-02-11T13:21:15.427Z,0.80
2023-02-11T13:24:10.706Z,0.80
2023-02-11T13:27:14.714Z,0.80
2023-02-11T13:30:35.760Z,0.98
2023-02-11T13:33:35.351Z,1.05
2023-02-11T13:36:54.419Z,0.82
2023-02-11T13:39:41.430Z,0.90
2023-02-11T13:42:28.404Z,1.00
2023-02-11T13:45:19.516Z,0.90
2023-02-11T13:48:08.379Z,0.85
2023-02-11T13:50:57.715Z,0.90
2023-02-11T13:53:56.514Z,1.00
2023-02-11T13:56:45.121Z,1.08
2023-02-11T13:59:33.276Z,1.20
2023-02-11T14:03:04.309Z,1.23
2023-02-11T14:06:29.241Z,1.02
2023-02-11T14:09:17.621Z,1.30
2023-02-11T14:12:22.860Z,1.23
2023-02-11T14:15:09.957Z,1.10
2023-02-11T14:17:56.385Z,0.95
2023-02-11T14:20:44.847Z,1.25
2023-02-11T14:23:32.845Z,1.17
2023-02-11T14:26:22.479Z,1.20
2023-02-11T14:29:27.952Z,1.10
2023-02-11T14:32:29.492Z,1.33
2023-02-11T14:35:22.052Z,1.23
2023-02-11T14:38:11.250Z,1.10
2023-02-11T14:41:00.142Z,1.30
2023-02-11T14:43:59.062Z,1.35
2023-02-11T14:46:52.740Z,1.10
2023-02-11T14:49:41.886Z,1.10
2023-02-11T14:52:34.462Z,1.02
2023-02-11T14:58:21.136Z,1.13
2023-02-11T15:01:23.914Z,1.42
2023-02-11T15:04:33.710Z,1.20
2023-02-11T15:07:21.549Z,1.13
2023-02-11T15:10:17.503Z,1.00
2023-02-11T15:13:04.446Z,1.30
2023-02-11T15:15:54.012Z,1.63
2023-02-11T15:18:42.981Z,0.88
2023-02-11T15:21:31.458Z,1.05
2023-02-11T15:24:32.312Z,1.20
2023-02-11T15:27:22.002Z,1.10
2023-02-11T15:30:24.052Z,1.00
2023-02-11T15:33:22.047Z,0.93
2023-02-11T15:36:09.369Z,0.90
2023-02-11T15:39:19.007Z,1.00
2023-02-11T15:42:20.860Z,1.00
2023-02-11T15:45:16.605Z,0.68
2023-02-11T15:48:11.169Z,1.27
2023-02-11T15:51:03.196Z,0.98
2023-02-11T15:53:53.387Z,1.10
2023-02-11T15:56:44.898Z,1.02
2023-02-11T15:59:31.373Z,0.90
2023-02-11T16:02:19.875Z,0.88
2023-02-11T16:05:08.372Z,0.90
2023-02-11T16:07:54.752Z,0.98
2023-02-11T16:10:41.834Z,1.10
2023-02-11T16:13:29.817Z,1.00
2023-02-11T16:16:20.680Z,1.10
2023-02-11T16:19:06.906Z,0.85
2023-02-11T16:24:50.415Z,0.65
2023-02-11T16:27:41.249Z,1.10
2023-02-11T16:30:38.294Z,0.93
2023-02-11T16:33:24.523Z,0.60
2023-02-11T16:36:14.901Z,1.10
2023-02-11T16:39:01.199Z,0.80
2023-02-11T16:41:47.586Z,1.08
2023-02-11T16:44:34.154Z,0.80
2023-02-11T16:47:26.683Z,0.98
2023-02-11T16:50:20.951Z,0.97
2023-02-11T16:53:07.588Z,1.08
2023-02-11T16:55:54.250Z,1.00
2023-02-11T16:58:41.269Z,0.68
2023-02-11T17:01:27.746Z,0.80
2023-02-11T17:04:19.149Z,1.08
2023-02-11T17:07:05.488Z,0.95
2023-02-11T17:09:52.942Z,0.88
2023-02-11T17:12:39.597Z,0.98
2023-02-11T17:15:25.773Z,11.30
2023-02-11T17:18:14.423Z,4.05
2023-02-11T17:21:01.507Z,0.80
2023-02-11T17:23:47.679Z,0.77
2023-02-11T17:26:36.276Z,0.73
2023-02-11T17:29:23.801Z,0.70
2023-02-11T17:32:10.309Z,1.05
2023-02-11T17:34:56.856Z,1.00
2023-02-11T17:37:42.923Z,1.20
2023-02-11T17:40:29.641Z,0.80
2023-02-11T17:43:16.792Z,1.00
2023-02-11T17:46:06.371Z,1.13
2023-02-11T17:48:53.402Z,0.55
2023-02-11T17:51:41.000Z,0.85
2023-02-11T17:54:27.518Z,0.73
2023-02-11T17:57:13.952Z,0.60
2023-02-11T18:00:00.418Z,0.80
2023-02-11T18:02:46.802Z,0.95
2023-02-11T18:05:37.067Z,0.80
2023-02-11T18:08:23.262Z,0.82
2023-02-11T18:11:10.782Z,1.25
2023-02-11T18:13:59.233Z,0.98
2023-02-11T18:16:46.213Z,0.80
2023-02-11T18:19:35.213Z,1.10
2023-02-11T18:22:21.864Z,1.20
2023-02-11T18:25:09.118Z,1.50
2023-02-11T18:27:55.778Z,1.25
2023-02-11T18:30:41.961Z,1.05
2023-02-11T18:33:28.941Z,1.08
2023-02-11T18:36:15.868Z,1.00
2023-02-11T18:39:03.027Z,1.38
2023-02-11T18:41:57.379Z,1.13
2023-02-11T18:44:44.424Z,1.00
2023-02-11T18:47:31.026Z,1.10
2023-02-11T18:50:17.399Z,1.20
2023-02-11T18:53:04.595Z,1.23
2023-02-11T18:55:52.558Z,0.90
2023-02-11T18:58:39.948Z,1.08
2023-02-11T19:01:27.654Z,1.00
2023-02-11T19:04:19.781Z,1.23
2023-02-11T19:07:06.732Z,1.35
2023-02-11T19:09:54.242Z,1.00
2023-02-11T19:12:40.468Z,0.95
2023-02-11T19:15:27.122Z,1.25
2023-02-11T19:18:16.956Z,1.08
2023-02-11T19:21:12.894Z,0.90
2023-02-11T19:24:01.074Z,1.23
2023-02-11T19:26:49.273Z,1.10
2023-02-11T19:29:35.994Z,1.33
2023-02-11T19:32:22.890Z,1.08
2023-02-11T19:35:09.254Z,1.40
2023-02-11T19:37:55.622Z,1.00
2023-02-11T19:40:42.590Z,0.93
2023-02-11T19:43:29.872Z,1.10
2023-02-11T19:46:16.822Z,1.15
2023-02-11T19:49:04.312Z,1.10
2023-02-11T19:51:51.304Z,1.10
2023-02-11T19:54:38.920Z,1.23
2023-02-11T19:57:26.087Z,1.08
2023-02-11T20:00:13.045Z,1.08
2023-02-11T20:03:01.188Z,1.15
2023-02-11T20:05:47.963Z,1.52
2023-02-11T20:08:34.431Z,1.42
2023-02-11T20:11:21.155Z,1.52
2023-02-11T20:14:08.526Z,1.30
2023-02-11T20:16:55.329Z,1.02
2023-02-11T20:19:45.436Z,1.00
2023-02-11T20:22:31.722Z,1.33
2023-02-11T20:25:18.761Z,0.98
2023-02-11T20:28:05.637Z,1.05
2023-02-11T20:30:59.696Z,1.10
2023-02-11T20:33:47.378Z,0.82
2023-02-11T20:36:36.415Z,1.10
2023-02-11T20:39:26.890Z,1.00
2023-02-11T20:42:15.524Z,0.95
2023-02-11T20:45:01.716Z,1.35
2023-02-11T20:47:48.491Z,1.02
2023-02-11T20:50:43.197Z,0.95
2023-02-11T20:53:29.397Z,0.90
2023-02-11T20:56:16.882Z,1.25
2023-02-11T20:59:05.619Z,0.90
2023-02-11T21:01:56.242Z,1.00
2023-02-11T21:04:47.713Z,1.00
2023-02-11T21:07:39.067Z,1.27
2023-02-11T21:10:27.997Z,0.93
2023-02-11T21:13:14.223Z,1.10
2023-02-11T21:16:04.098Z,0.90
2023-02-11T21:18:51.793Z,1.00
2023-02-11T21:21:39.412Z,0.57
2023-02-11T21:24:26.907Z,1.15
2023-02-11T21:27:14.622Z,0.85
2023-02-11T21:30:04.838Z,0.80
2023-02-11T21:32:52.656Z,0.90
2023-02-11T21:35:38.989Z,0.80
2023-02-11T21:38:26.187Z,0.93
2023-02-11T21:41:13.005Z,1.10
2023-02-11T21:43:59.656Z,1.10
2023-02-11T21:46:46.592Z,0.82
2023-02-11T21:49:33.604Z,0.90
2023-02-11T21:52:20.123Z,1.10
2023-02-11T21:55:07.454Z,0.82
2023-02-11T21:57:54.557Z,0.90
2023-02-11T22:00:43.593Z,1.00
2023-02-11T22:03:30.079Z,0.95
2023-02-11T22:06:21.468Z,0.95
2023-02-11T22:09:09.928Z,0.80
2023-02-11T22:11:57.056Z,0.50
2023-02-11T22:14:43.260Z,0.88
2023-02-11T22:17:30.503Z,0.95
2023-02-11T22:20:17.480Z,0.98
2023-02-11T22:23:04.551Z,0.95
2023-02-11T22:25:50.721Z,0.80
2023-02-11T22:28:39.732Z,0.95
2023-02-11T22:31:28.537Z,0.93
2023-02-11T22:34:15.103Z,1.23
2023-02-11T22:37:02.589Z,0.95
2023-02-11T22:39:49.324Z,1.10
2023-02-11T22:42:36.030Z,1.02
2023-02-11T22:45:22.517Z,0.90
2023-02-11T22:48:08.656Z,1.27
2023-02-11T22:50:54.828Z,1.05
2023-02-11T22:53:41.164Z,1.10
2023-02-11T22:56:28.394Z,0.77
2023-02-11T22:59:16.451Z,1.08
2023-02-11T23:02:02.828Z,1.10
2023-02-11T23:04:50.072Z,0.90
2023-02-11T23:07:36.561Z,1.08
2023-02-11T23:10:23.133Z,1.08
2023-02-11T23:13:11.468Z,1.27
2023-02-11T23:15:57.734Z,1.20
2023-02-11T23:18:45.485Z,1.08
2023-02-11T23:21:32.930Z,1.08
2023-02-11T23:24:19.931Z,0.90
2023-02-11T23:27:06.842Z,0.85
2023-02-11T23:29:56.200Z,1.10
2023-02-11T23:32:42.284Z,1.40
2023-02-11T23:35:28.442Z,1.55
2023-02-11T23:38:15.192Z,0.80
2023-02-11T23:41:01.528Z,0.95
2023-02-11T23:43:55.500Z,1.05
2023-02-11T23:46:42.309Z,1.10
2023-02-11T23:49:28.398Z,0.95
2023-02-11T23:52:15.246Z,0.90
2023-02-11T23:55:01.429Z,1.40
2023-02-11T23:57:47.678Z,1.08
